createdAt,value
2018-07-03T00:00:31.934Z,91.30
2018-07-03T00:03:00.362Z,91.10
2018-07-03T00:05:28.790Z,91.20
2018-07-03T00:07:57.217Z,91.60
2018-07-03T00:12:53.777Z,92.20
2018-07-03T00:15:22.231Z,91.90
2018-07-03T00:17:50.649Z,91.90
2018-07-03T00:20:19.073Z,91.80
2018-07-03T00:22:47.533Z,91.70
2018-07-03T00:25:15.974Z,92.00
2018-07-03T00:30:12.542Z,92.10
2018-07-03T00:32:41.001Z,91.80
2018-07-03T00:35:09.402Z,92.00
2018-07-03T00:37:37.862Z,92.10
2018-07-03T00:42:34.438Z,92.00
2018-07-03T00:45:02.863Z,91.70
2018-07-03T00:47:31.301Z,91.70
2018-07-03T00:49:59.753Z,91.90
2018-07-03T00:52:28.192Z,92.10
2018-07-03T00:54:56.625Z,92.20
2018-07-03T00:57:25.061Z,92.60
2018-07-03T01:00:04.695Z,92.10
2018-07-03T01:02:33.134Z,91.90
2018-07-03T01:05:01.572Z,92.20
2018-07-03T01:07:30.026Z,92.40
2018-07-03T01:09:58.468Z,92.50
2018-07-03T01:12:26.909Z,92.20
2018-07-03T01:14:55.348Z,92.70
2018-07-03T01:17:23.766Z,92.80
2018-07-03T01:19:52.213Z,93.10
2018-07-03T01:22:20.661Z,93.30
2018-07-03T01:24:49.170Z,93.80
2018-07-03T01:27:17.615Z,94.00
2018-07-03T01:29:46.073Z,94.40
2018-07-03T01:34:42.683Z,94.70
2018-07-03T01:37:11.094Z,94.70
2018-07-03T01:39:39.521Z,94.70
2018-07-03T01:42:07.954Z,94.40
2018-07-03T01:44:36.405Z,94.60
2018-07-03T01:47:04.834Z,94.70
2018-07-03T01:52:01.395Z,94.50
2018-07-03T01:54:29.820Z,94.50
2018-07-03T01:56:58.279Z,94.80
2018-07-03T01:59:26.709Z,95.10
2018-07-03T02:01:55.145Z,95.60
2018-07-03T02:04:23.568Z,95.50
2018-07-03T02:09:20.135Z,95.00
2018-07-03T02:11:48.589Z,95.60
2018-07-03T02:14:17.030Z,95.50
2018-07-03T02:16:45.485Z,95.90
2018-07-03T02:19:13.897Z,95.50
2018-07-03T02:21:42.342Z,95.60
2018-07-03T02:24:10.759Z,96.10
2018-07-03T02:26:39.209Z,95.90
2018-07-03T02:29:07.664Z,95.80
2018-07-03T02:31:36.148Z,95.70
2018-07-03T02:36:32.714Z,95.50
2018-07-03T02:39:01.158Z,95.80
2018-07-03T02:41:29.609Z,96.00
2018-07-03T02:43:58.042Z,95.80
2018-07-03T02:48:54.617Z,96.20
2018-07-03T02:51:23.018Z,96.70
2018-07-03T02:53:51.467Z,96.60
2018-07-03T02:56:19.878Z,96.50
2018-07-03T02:58:48.357Z,96.50
2018-07-03T03:01:16.783Z,96.50
2018-07-03T03:03:45.249Z,96.70
2018-07-03T03:06:13.679Z,97.00
2018-07-03T03:08:42.177Z,96.40
2018-07-03T03:11:10.633Z,96.20
2018-07-03T03:13:39.126Z,96.60
2018-07-03T03:16:07.583Z,96.60
2018-07-03T03:18:36.078Z,96.70
2018-07-03T03:21:04.564Z,96.60
2018-07-03T03:23:33.038Z,97.10
2018-07-03T03:26:01.504Z,97.40
2018-07-03T03:28:29.986Z,97.50
2018-07-03T03:30:58.447Z,97.90
2018-07-03T03:33:26.904Z,97.60
2018-07-03T03:35:55.361Z,97.30
2018-07-03T03:38:23.857Z,97.50
2018-07-03T03:40:52.306Z,97.60
2018-07-03T03:43:20.783Z,97.40
2018-07-03T03:45:49.252Z,97.30
2018-07-03T03:48:17.749Z,97.40
2018-07-03T03:50:46.234Z,97.30
2018-07-03T03:53:14.698Z,97.50
2018-07-03T03:55:43.169Z,97.70
2018-07-03T03:58:11.625Z,97.70
2018-07-03T04:03:08.281Z,97.10
2018-07-03T04:05:36.734Z,97.60
2018-07-03T04:08:05.176Z,97.50
2018-07-03T04:10:33.597Z,97.40
2018-07-03T04:13:02.187Z,98.00
2018-07-03T04:15:30.637Z,97.90
2018-07-03T04:17:59.042Z,97.70
2018-07-03T04:20:27.494Z,97.80
2018-07-03T04:22:55.905Z,97.60
2018-07-03T04:25:24.387Z,96.80
2018-07-03T04:27:52.823Z,97.10
2018-07-03T04:30:21.304Z,96.80
2018-07-03T04:32:49.730Z,97.30
2018-07-03T04:37:46.306Z,97.10
2018-07-03T04:40:14.764Z,97.10
2018-07-03T04:42:43.185Z,96.80
2018-07-03T04:45:11.618Z,97.10
2018-07-03T04:47:40.066Z,97.10
2018-07-03T04:50:08.502Z,97.30
2018-07-03T04:52:36.962Z,97.00
2018-07-03T04:57:33.545Z,97.70
2018-07-03T05:00:01.950Z,97.20
2018-07-03T05:02:30.378Z,97.80
2018-07-03T05:04:58.830Z,97.30
2018-07-03T05:07:27.334Z,97.30
2018-07-03T05:09:55.771Z,97.20
2018-07-03T05:12:24.219Z,97.30
2018-07-03T05:14:52.682Z,97.20
2018-07-03T05:17:21.207Z,96.90
2018-07-03T05:19:49.915Z,96.80
2018-07-03T05:22:18.399Z,97.20
2018-07-03T05:24:46.864Z,97.40
2018-07-03T05:27:15.365Z,96.90
2018-07-03T05:29:43.826Z,96.60
2018-07-03T05:32:12.571Z,96.40
2018-07-03T05:34:41.043Z,96.50
2018-07-03T05:37:09.569Z,95.90
2018-07-03T05:39:37.989Z,95.40
2018-07-03T05:42:06.474Z,94.30
2018-07-03T05:47:03.189Z,93.30
2018-07-03T05:49:31.600Z,94.00
2018-07-03T05:54:28.242Z,92.10
2018-07-03T05:56:56.733Z,92.20
2018-07-03T06:01:53.437Z,91.00
2018-07-03T06:04:21.894Z,91.10
2018-07-03T06:06:50.342Z,90.70
2018-07-03T06:09:18.865Z,90.20
2018-07-03T06:11:47.190Z,91.10
2018-07-03T06:14:15.618Z,90.90
2018-07-03T06:16:44.143Z,90.60
2018-07-03T06:19:12.579Z,90.40
2018-07-03T06:21:41.045Z,89.50
2018-07-03T06:24:09.482Z,89.10
2018-07-03T06:26:37.919Z,89.00
2018-07-03T06:29:06.465Z,88.70
2018-07-03T06:31:34.873Z,87.00
2018-07-03T06:34:03.302Z,86.00
2018-07-03T06:36:31.711Z,83.30
2018-07-03T06:39:00.149Z,82.00
2018-07-03T06:41:28.553Z,80.30
2018-07-03T06:43:56.964Z,78.40
2018-07-03T06:46:25.414Z,80.40
2018-07-03T06:51:22.021Z,79.80
2018-07-03T06:53:50.451Z,78.30
2018-07-03T06:56:18.894Z,79.10
2018-07-03T06:58:47.309Z,78.00
2018-07-03T07:01:15.747Z,76.40
2018-07-03T07:03:44.158Z,77.60
2018-07-03T07:06:12.620Z,76.50
2018-07-03T07:08:41.167Z,76.90
2018-07-03T07:11:09.554Z,76.90
2018-07-03T07:13:38.010Z,75.80
2018-07-03T07:16:06.490Z,76.60
2018-07-03T07:18:34.974Z,75.90
2018-07-03T07:21:03.419Z,73.50
2018-07-03T07:23:31.825Z,73.20
2018-07-03T07:26:00.269Z,72.10
2018-07-03T07:28:28.718Z,70.80
2018-07-03T07:30:57.197Z,71.50
2018-07-03T07:33:25.635Z,74.00
2018-07-03T07:35:54.101Z,72.60
2018-07-03T07:38:22.520Z,69.50
2018-07-03T07:40:50.949Z,69.20
2018-07-03T07:43:19.374Z,69.50
2018-07-03T07:45:47.789Z,70.90
2018-07-03T07:48:16.277Z,69.50
2018-07-03T07:50:44.710Z,67.40
2018-07-03T07:53:13.157Z,67.10
2018-07-03T07:58:09.749Z,65.20
2018-07-03T08:00:38.222Z,67.50
2018-07-03T08:03:06.659Z,67.30
2018-07-03T08:05:35.074Z,64.70
2018-07-03T08:08:03.554Z,64.50
2018-07-03T08:10:32.201Z,66.90
2018-07-03T08:13:00.638Z,65.40
2018-07-03T08:15:29.075Z,66.70
2018-07-03T08:20:25.652Z,64.50
2018-07-03T08:22:54.069Z,60.00
2018-07-03T08:25:22.526Z,62.70
2018-07-03T08:27:50.941Z,60.60
2018-07-03T08:30:19.385Z,61.40
2018-07-03T08:32:47.801Z,63.10
2018-07-03T08:35:16.308Z,61.90
2018-07-03T08:40:12.908Z,60.00
2018-07-03T08:42:41.355Z,59.50
2018-07-03T08:45:09.827Z,59.50
2018-07-03T08:50:06.701Z,54.30
2018-07-03T08:52:35.134Z,55.40
2018-07-03T08:55:03.689Z,54.60
2018-07-03T08:57:32.078Z,54.40
2018-07-03T09:00:00.536Z,54.30
2018-07-03T09:02:28.981Z,54.70
2018-07-03T09:04:57.415Z,53.10
2018-07-03T09:07:25.874Z,52.50
2018-07-03T09:09:54.389Z,51.20
2018-07-03T09:12:22.805Z,51.20
2018-07-03T09:14:51.215Z,52.20
2018-07-03T09:17:24.990Z,49.30
2018-07-03T09:19:53.413Z,50.80
2018-07-03T09:22:21.898Z,49.70
2018-07-03T09:24:50.334Z,46.80
2018-07-03T09:27:18.778Z,46.00
2018-07-03T09:29:47.223Z,47.40
2018-07-03T09:32:15.720Z,46.60
2018-07-03T09:34:44.150Z,45.10
2018-07-03T09:37:12.603Z,43.80
2018-07-03T09:39:41.059Z,45.10
2018-07-03T09:42:09.505Z,42.90
2018-07-03T09:44:37.922Z,41.60
2018-07-03T09:47:06.458Z,41.50
2018-07-03T09:49:34.970Z,39.70
2018-07-03T09:52:03.406Z,40.60
2018-07-03T09:54:31.836Z,38.70
2018-07-03T09:57:00.266Z,39.70
2018-07-03T09:59:28.696Z,37.60
2018-07-03T10:01:57.146Z,37.70
2018-07-03T10:04:25.603Z,38.80
2018-07-03T10:09:22.173Z,36.50
2018-07-03T10:11:50.607Z,35.80
2018-07-03T10:14:19.039Z,35.70
2018-07-03T10:16:47.496Z,37.20
2018-07-03T10:19:15.929Z,35.60
2018-07-03T10:21:44.366Z,37.00
2018-07-03T10:24:12.847Z,35.60
2018-07-03T10:26:41.268Z,36.30
2018-07-03T10:29:09.706Z,33.90
2018-07-03T10:31:38.154Z,33.60
2018-07-03T10:34:06.627Z,33.10
2018-07-03T10:39:03.286Z,34.20
2018-07-03T10:41:31.746Z,33.60
2018-07-03T10:44:00.175Z,31.30
2018-07-03T10:46:28.606Z,30.70
2018-07-03T10:48:58.283Z,31.80
2018-07-03T10:51:26.711Z,32.40
2018-07-03T10:53:55.145Z,33.10
2018-07-03T10:56:23.566Z,31.10
2018-07-03T10:58:52.254Z,30.20
2018-07-03T11:01:20.692Z,28.90
2018-07-03T11:03:49.129Z,31.70
2018-07-03T11:08:45.700Z,29.80
2018-07-03T11:11:14.176Z,27.60
2018-07-03T11:13:42.639Z,32.40
2018-07-03T11:16:11.122Z,32.10
2018-07-03T11:18:39.553Z,32.50
2018-07-03T11:21:08.034Z,32.30
2018-07-03T11:23:36.441Z,31.40
2018-07-03T11:26:04.920Z,32.50
2018-07-03T11:28:33.343Z,31.00
2018-07-03T11:31:01.850Z,30.00
2018-07-03T11:33:30.265Z,29.80
2018-07-03T11:38:26.834Z,33.30
2018-07-03T11:43:23.652Z,31.50
2018-07-03T11:45:52.128Z,30.40
2018-07-03T11:48:20.589Z,30.80
2018-07-03T11:50:49.102Z,30.00
2018-07-03T11:53:17.541Z,31.10
2018-07-03T11:55:46.022Z,30.50
2018-07-03T11:58:14.431Z,29.40
2018-07-03T12:00:42.912Z,30.20
2018-07-03T12:03:11.337Z,29.60
2018-07-03T12:05:39.771Z,29.90
2018-07-03T12:08:08.233Z,30.00
2018-07-03T12:10:36.677Z,31.30
2018-07-03T12:13:05.233Z,31.70
2018-07-03T12:18:01.842Z,32.60
2018-07-03T12:20:30.353Z,32.50
2018-07-03T12:22:58.885Z,31.50
2018-07-03T12:25:27.342Z,32.60
2018-07-03T12:27:55.834Z,31.50
2018-07-03T12:30:24.331Z,31.50
2018-07-03T12:32:52.814Z,28.80
2018-07-03T12:35:21.271Z,30.40
2018-07-03T12:37:49.725Z,31.60
2018-07-03T12:40:18.199Z,30.80
2018-07-03T12:42:46.703Z,31.30
2018-07-03T12:45:15.167Z,29.20
2018-07-03T12:47:43.662Z,32.10
2018-07-03T12:52:40.318Z,32.20
2018-07-03T12:57:36.993Z,31.70
2018-07-03T13:00:05.742Z,31.60
2018-07-03T13:02:34.401Z,30.70
2018-07-03T13:05:02.920Z,31.70
2018-07-03T13:07:31.396Z,33.60
2018-07-03T13:09:59.874Z,33.40
2018-07-03T13:12:28.338Z,30.90
2018-07-03T13:14:56.811Z,31.60
2018-07-03T13:17:25.270Z,29.90
2018-07-03T13:19:53.739Z,30.40
2018-07-03T13:22:22.155Z,28.50
2018-07-03T13:24:50.697Z,28.80
2018-07-03T13:27:19.150Z,27.40
2018-07-03T13:32:15.779Z,28.40
2018-07-03T13:34:44.233Z,29.20
2018-07-03T13:37:12.669Z,28.50
2018-07-03T13:39:41.142Z,28.80
2018-07-03T13:42:09.635Z,26.70
2018-07-03T13:44:38.081Z,26.50
2018-07-03T13:47:06.588Z,26.50
2018-07-03T13:49:35.081Z,26.90
2018-07-03T13:52:03.514Z,27.10
2018-07-03T13:54:31.973Z,27.80
2018-07-03T13:57:00.389Z,25.60
2018-07-03T14:01:56.933Z,25.60
2018-07-03T14:04:25.365Z,25.20
2018-07-03T14:06:53.897Z,23.40
2018-07-03T14:09:22.328Z,25.10
2018-07-03T14:11:50.755Z,24.50
2018-07-03T14:14:19.223Z,24.80
2018-07-03T14:16:47.667Z,25.30
2018-07-03T14:19:16.083Z,23.80
2018-07-03T14:21:44.599Z,23.60
2018-07-03T14:24:12.973Z,23.60
2018-07-03T14:26:41.502Z,24.80
2018-07-03T14:29:09.925Z,23.60
2018-07-03T14:31:39.577Z,24.00
2018-07-03T14:34:08.130Z,23.50
2018-07-03T14:36:36.590Z,24.00
2018-07-03T14:41:36.081Z,23.70
2018-07-03T14:44:04.522Z,24.20
2018-07-03T14:46:32.970Z,25.40
2018-07-03T14:49:01.379Z,25.00
2018-07-03T14:51:29.886Z,24.70
2018-07-03T14:53:58.318Z,25.60
2018-07-03T14:56:26.745Z,23.60
2018-07-03T14:58:55.205Z,22.20
2018-07-03T15:01:23.617Z,23.40
2018-07-03T15:03:52.090Z,22.70
2018-07-03T15:06:20.532Z,23.20
2018-07-03T15:08:48.968Z,25.50
2018-07-03T15:11:17.402Z,25.30
2018-07-03T15:13:45.840Z,24.60
2018-07-03T15:16:14.288Z,26.30
2018-07-03T15:18:48.025Z,27.10
2018-07-03T15:21:16.421Z,25.10
2018-07-03T15:26:13.714Z,27.10
2018-07-03T15:28:42.136Z,25.60
2018-07-03T15:31:10.589Z,25.80
2018-07-03T15:33:39.039Z,26.00
2018-07-03T15:36:07.477Z,25.90
2018-07-03T15:38:35.897Z,26.20
2018-07-03T15:41:04.321Z,27.10
2018-07-03T15:43:32.757Z,26.90
2018-07-03T15:46:01.173Z,27.80
2018-07-03T15:48:29.597Z,28.10
2018-07-03T15:53:26.149Z,30.80
2018-07-03T15:58:22.691Z,34.60
2018-07-03T16:05:32.930Z,36.00
2018-07-03T16:09:10.710Z,36.10
2018-07-03T16:11:39.870Z,34.20
2018-07-03T16:14:08.798Z,35.30
2018-07-03T16:16:37.345Z,36.20
2018-07-03T16:19:11.314Z,35.00
2018-07-03T16:21:39.858Z,34.80
2018-07-03T16:24:08.930Z,35.40
2018-07-03T16:26:37.502Z,31.50
2018-07-03T16:29:08.053Z,31.00
2018-07-03T16:31:36.533Z,34.50
2018-07-03T16:36:33.183Z,36.20
2018-07-03T16:41:29.842Z,39.00
2018-07-03T16:46:26.445Z,41.00
2018-07-03T16:48:54.898Z,39.00
2018-07-03T16:51:23.375Z,40.70
2018-07-03T16:53:51.820Z,39.70
2018-07-03T16:56:20.265Z,40.50
2018-07-03T16:58:48.728Z,39.30
2018-07-03T17:01:17.185Z,41.80
2018-07-03T17:03:45.658Z,41.10
2018-07-03T17:08:42.285Z,42.70
2018-07-03T17:11:10.806Z,44.90
2018-07-03T17:13:39.327Z,43.90
2018-07-03T17:18:35.885Z,45.00
2018-07-03T17:21:04.325Z,46.30
2018-07-03T17:23:32.776Z,45.00
2018-07-03T17:28:29.305Z,47.10
2018-07-03T17:30:57.709Z,45.80
2018-07-03T17:33:26.156Z,47.10
2018-07-03T17:35:54.558Z,47.20
2018-07-03T17:38:23.010Z,47.70
2018-07-03T17:41:02.691Z,47.80
2018-07-03T17:44:09.698Z,47.90
2018-07-03T17:46:38.133Z,46.80
2018-07-03T17:49:06.843Z,46.60
2018-07-03T17:54:03.606Z,48.60
2018-07-03T17:56:32.050Z,49.40
2018-07-03T17:59:00.778Z,49.80
2018-07-03T18:01:29.219Z,50.00
2018-07-03T18:03:57.650Z,50.00
2018-07-03T18:06:26.113Z,50.20
2018-07-03T18:08:54.543Z,51.30
2018-07-03T18:11:22.964Z,52.40
2018-07-03T18:13:51.658Z,52.90
2018-07-03T18:16:20.269Z,53.80
2018-07-03T18:18:53.959Z,54.00
2018-07-03T18:21:22.369Z,54.30
2018-07-03T18:23:50.854Z,54.90
2018-07-03T18:26:19.341Z,56.00
2018-07-03T18:28:47.779Z,56.40
2018-07-03T18:31:16.186Z,56.40
2018-07-03T18:33:44.624Z,57.20
2018-07-03T18:36:13.045Z,57.90
2018-07-03T18:38:41.898Z,57.20
2018-07-03T18:41:10.318Z,57.90
2018-07-03T18:43:38.767Z,58.80
2018-07-03T18:46:07.800Z,58.90
2018-07-03T18:48:36.273Z,60.90
2018-07-03T18:51:04.741Z,61.10
2018-07-03T18:53:33.201Z,62.70
2018-07-03T18:56:01.645Z,63.20
2018-07-03T19:00:58.193Z,63.10
2018-07-03T19:03:26.705Z,66.10
2018-07-03T19:05:55.054Z,66.30
2018-07-03T19:08:23.509Z,67.20
2018-07-03T19:10:51.962Z,68.30
2018-07-03T19:13:20.377Z,67.90
2018-07-03T19:15:48.826Z,68.50
2018-07-03T19:18:17.249Z,69.10
2018-07-03T19:23:13.790Z,69.90
2018-07-03T19:28:10.766Z,68.80
2018-07-03T19:30:39.251Z,69.30
2018-07-03T19:33:07.662Z,70.50
2018-07-03T19:35:36.197Z,71.60
2018-07-03T19:40:32.814Z,73.40
2018-07-03T19:43:17.043Z,74.90
2018-07-03T19:45:45.450Z,75.10
2018-07-03T19:48:13.858Z,75.10
2018-07-03T19:50:42.401Z,76.10
2018-07-03T19:53:10.771Z,77.30
2018-07-03T19:55:39.293Z,76.80
2018-07-03T19:58:07.682Z,76.50
2018-07-03T20:00:36.593Z,77.70
2018-07-03T20:03:05.271Z,78.60
2018-07-03T20:05:34.042Z,79.50
2018-07-03T20:10:30.593Z,80.00
2018-07-03T20:12:59.932Z,79.20
2018-07-03T20:15:28.331Z,79.40
2018-07-03T20:17:56.782Z,79.60
2018-07-03T20:20:25.858Z,78.90
2018-07-03T20:25:22.539Z,80.10
2018-07-03T20:27:50.985Z,80.00
2018-07-03T20:32:48.077Z,78.70
2018-07-03T20:35:16.729Z,81.20
2018-07-03T20:40:20.475Z,78.60
2018-07-03T20:42:48.897Z,78.90
2018-07-03T20:45:18.322Z,80.40
2018-07-03T20:47:47.140Z,79.70
2018-07-03T20:50:15.998Z,81.00
2018-07-03T20:52:44.809Z,79.00
2018-07-03T20:55:13.473Z,81.00
2018-07-03T20:57:41.905Z,83.10
2018-07-03T21:00:10.311Z,83.10
2018-07-03T21:02:38.758Z,81.40
2018-07-03T21:05:07.221Z,81.70
2018-07-03T21:07:35.697Z,79.50
2018-07-03T21:10:04.262Z,79.70
2018-07-03T21:12:32.670Z,78.70
2018-07-03T21:15:01.113Z,79.50
2018-07-03T21:17:29.541Z,78.10
2018-07-03T21:19:57.969Z,76.60
2018-07-03T21:22:26.396Z,77.90
2018-07-03T21:24:54.833Z,78.90
2018-07-03T21:29:51.382Z,80.80
2018-07-03T21:32:19.790Z,80.40
2018-07-03T21:34:48.248Z,79.20
2018-07-03T21:39:44.809Z,79.10
2018-07-03T21:42:13.222Z,80.10
2018-07-03T21:44:41.666Z,78.20
2018-07-03T21:49:38.217Z,79.40
2018-07-03T21:54:34.770Z,82.40
2018-07-03T21:59:31.421Z,82.80
2018-07-03T22:01:59.837Z,84.10
2018-07-03T22:04:28.281Z,85.20
2018-07-03T22:06:56.718Z,85.10
2018-07-03T22:09:25.158Z,87.30
2018-07-03T22:11:53.982Z,87.00
2018-07-03T22:14:22.393Z,85.50
2018-07-03T22:16:50.874Z,84.80
2018-07-03T22:19:19.285Z,84.30
2018-07-03T22:21:47.796Z,84.00
2018-07-03T22:24:16.445Z,83.70
2018-07-03T22:26:44.901Z,83.40
2018-07-03T22:31:42.318Z,86.10
2018-07-03T22:34:10.952Z,87.00
2018-07-03T22:36:39.453Z,87.70
2018-07-03T22:39:08.847Z,87.70
2018-07-03T22:41:37.350Z,86.70
2018-07-03T22:44:05.924Z,86.80
2018-07-03T22:46:34.359Z,88.20
2018-07-03T22:49:02.778Z,88.00
2018-07-03T22:51:31.230Z,87.50
2018-07-03T22:53:59.641Z,89.20
2018-07-03T22:56:28.330Z,89.70
2018-07-03T22:58:56.737Z,90.20
2018-07-03T23:01:25.197Z,90.40
2018-07-03T23:03:53.610Z,90.70
2018-07-03T23:06:22.081Z,90.90
2018-07-03T23:08:50.516Z,91.00
2018-07-03T23:11:18.953Z,90.80
2018-07-03T23:13:47.401Z,90.70
2018-07-03T23:16:15.883Z,91.00
2018-07-03T23:18:44.519Z,91.40
2018-07-03T23:21:12.973Z,91.20
2018-07-03T23:23:41.457Z,91.90
2018-07-03T23:26:09.898Z,91.70
2018-07-03T23:28:38.392Z,92.20
2018-07-03T23:31:06.869Z,92.20
2018-07-03T23:33:35.346Z,92.70
2018-07-03T23:36:03.811Z,92.50
2018-07-03T23:38:32.307Z,92.60
2018-07-03T23:41:00.774Z,92.50
2018-07-03T23:43:29.274Z,92.60
2018-07-03T23:45:59.654Z,92.60
2018-07-03T23:51:13.889Z,92.80
2018-07-03T23:53:53.610Z,92.40
2018-07-03T23:56:33.821Z,92.30
